sensor_id;sensor_type;location;lat;lon;timestamp;pressure;altitude;pressure_sealevel;temperature;humidity
61537;BME280;48695;53.480;-6.300;2023-12-07T00:00:14;99600.44;;;10.56;80.67
61537;BME280;48695;53.480;-6.300;2023-12-07T00:02:40;99610.88;;;10.56;80.38
61537;BME280;48695;53.480;-6.300;2023-12-07T00:05:05;99620.38;;;10.57;80.41
61537;BME280;48695;53.480;-6.300;2023-12-07T00:07:30;99596.81;;;10.59;80.55
61537;BME280;48695;53.480;-6.300;2023-12-07T00:09:56;99602.00;;;10.60;80.35
61537;BME280;48695;53.480;-6.300;2023-12-07T00:12:21;99615.97;;;10.59;80.61
61537;BME280;48695;53.480;-6.300;2023-12-07T00:14:46;99591.56;;;10.60;80.86
61537;BME280;48695;53.480;-6.300;2023-12-07T00:17:11;99596.72;;;10.62;80.45
61537;BME280;48695;53.480;-6.300;2023-12-07T00:19:37;99581.06;;;10.62;80.40
61537;BME280;48695;53.480;-6.300;2023-12-07T00:22:02;99578.44;;;10.62;80.88
61537;BME280;48695;53.480;-6.300;2023-12-07T00:24:27;99581.91;;;10.62;80.57
61537;BME280;48695;53.480;-6.300;2023-12-07T00:26:53;99570.53;;;10.63;80.35
61537;BME280;48695;53.480;-6.300;2023-12-07T00:29:19;99573.16;;;10.63;80.27
61537;BME280;48695;53.480;-6.300;2023-12-07T00:31:44;99573.16;;;10.63;80.43
61537;BME280;48695;53.480;-6.300;2023-12-07T00:34:09;99568.72;;;10.65;80.77
61537;BME280;48695;53.480;-6.300;2023-12-07T00:36:35;99547.84;;;10.65;80.91
61537;BME280;48695;53.480;-6.300;2023-12-07T00:39:00;99565.19;;;10.67;80.49
61537;BME280;48695;53.480;-6.300;2023-12-07T00:41:25;99546.00;;;10.68;80.75
61537;BME280;48695;53.480;-6.300;2023-12-07T00:43:50;99525.13;;;10.68;80.84
61537;BME280;48695;53.480;-6.300;2023-12-07T00:46:16;99523.31;;;10.70;80.73
61537;BME280;48695;53.480;-6.300;2023-12-07T00:48:41;99522.44;;;10.69;80.62
61537;BME280;48695;53.480;-6.300;2023-12-07T00:51:06;99532.88;;;10.69;80.69
61537;BME280;48695;53.480;-6.300;2023-12-07T00:53:32;99506.78;;;10.69;80.99
61537;BME280;48695;53.480;-6.300;2023-12-07T00:55:57;99512.88;;;10.70;80.69
61537;BME280;48695;53.480;-6.300;2023-12-07T00:58:22;99512.88;;;10.70;80.89
61537;BME280;48695;53.480;-6.300;2023-12-07T01:00:48;99497.19;;;10.70;80.90
61537;BME280;48695;53.480;-6.300;2023-12-07T01:03:13;99493.66;;;10.71;80.57
61537;BME280;48695;53.480;-6.300;2023-12-07T01:05:38;99496.28;;;10.71;80.48
61537;BME280;48695;53.480;-6.300;2023-12-07T01:08:04;99509.34;;;10.71;80.70
61537;BME280;48695;53.480;-6.300;2023-12-07T01:10:29;99504.13;;;10.71;80.64
61537;BME280;48695;53.480;-6.300;2023-12-07T01:12:54;99498.91;;;10.71;80.96
61537;BME280;48695;53.480;-6.300;2023-12-07T01:15:20;99507.50;;;10.73;80.94
61537;BME280;48695;53.480;-6.300;2023-12-07T01:17:45;99486.59;;;10.73;80.79
61537;BME280;48695;53.480;-6.300;2023-12-07T01:20:10;99474.47;;;10.72;80.59
61537;BME280;48695;53.480;-6.300;2023-12-07T01:22:38;99456.97;;;10.74;80.73
61537;BME280;48695;53.480;-6.300;2023-12-07T01:25:04;99450.06;;;10.73;80.93
61537;BME280;48695;53.480;-6.300;2023-12-07T01:27:31;99451.75;;;10.74;80.84
61537;BME280;48695;53.480;-6.300;2023-12-07T01:29:56;99456.97;;;10.74;80.81
61537;BME280;48695;53.480;-6.300;2023-12-07T01:32:21;99441.31;;;10.74;80.65
61537;BME280;48695;53.480;-6.300;2023-12-07T01:34:47;99451.75;;;10.74;80.92
61537;BME280;48695;53.480;-6.300;2023-12-07T01:37:12;99441.31;;;10.74;80.73
61537;BME280;48695;53.480;-6.300;2023-12-07T01:39:37;99438.69;;;10.74;80.92
61537;BME280;48695;53.480;-6.300;2023-12-07T01:42:03;99451.75;;;10.74;80.69
61537;BME280;48695;53.480;-6.300;2023-12-07T01:44:28;99450.91;;;10.73;80.77
61537;BME280;48695;53.480;-6.300;2023-12-07T01:46:54;99464.81;;;10.74;80.90
61537;BME280;48695;53.480;-6.300;2023-12-07T01:49:19;99443.91;;;10.74;80.65
61537;BME280;48695;53.480;-6.300;2023-12-07T01:51:45;99443.03;;;10.75;81.05
61537;BME280;48695;53.480;-6.300;2023-12-07T01:54:10;99433.44;;;10.75;81.11
61537;BME280;48695;53.480;-6.300;2023-12-07T01:56:36;99445.63;;;10.75;80.88
61537;BME280;48695;53.480;-6.300;2023-12-07T01:59:01;99408.16;;;10.76;80.87
61537;BME280;48695;53.480;-6.300;2023-12-07T02:01:27;99435.13;;;10.76;80.67
61537;BME280;48695;53.480;-6.300;2023-12-07T02:03:52;99427.28;;;10.76;81.00
61537;BME280;48695;53.480;-6.300;2023-12-07T02:06:17;99435.97;;;10.77;80.72
61537;BME280;48695;53.480;-6.300;2023-12-07T02:08:43;99425.50;;;10.77;80.68
61537;BME280;48695;53.480;-6.300;2023-12-07T02:11:08;99410.78;;;10.76;81.07
61537;BME280;48695;53.480;-6.300;2023-12-07T02:13:35;99408.16;;;10.76;80.96
61537;BME280;48695;53.480;-6.300;2023-12-07T02:16:00;99395.09;;;10.76;80.98
61537;BME280;48695;53.480;-6.300;2023-12-07T02:18:51;99422.91;;;10.77;81.09
61537;BME280;48695;53.480;-6.300;2023-12-07T02:21:20;99442.88;;;10.78;81.14
61537;BME280;48695;53.480;-6.300;2023-12-07T02:23:47;99403.69;;;10.78;80.86
61537;BME280;48695;53.480;-6.300;2023-12-07T02:26:15;99407.16;;;10.78;80.84
61537;BME280;48695;53.480;-6.300;2023-12-07T02:28:43;99402.78;;;10.79;80.76
61537;BME280;48695;53.480;-6.300;2023-12-07T02:31:08;99409.78;;;10.78;80.70
61537;BME280;48695;53.480;-6.300;2023-12-07T02:33:34;99412.34;;;10.80;81.00
61537;BME280;48695;53.480;-6.300;2023-12-07T02:35:59;99404.50;;;10.80;80.97
61537;BME280;48695;53.480;-6.300;2023-12-07T02:38:25;99397.50;;;10.80;81.10
61537;BME280;48695;53.480;-6.300;2023-12-07T02:40:51;99397.44;;;10.82;81.09
61537;BME280;48695;53.480;-6.300;2023-12-07T02:43:18;99416.63;;;10.81;81.19
61537;BME280;48695;53.480;-6.300;2023-12-07T02:45:44;99397.44;;;10.82;80.97
61537;BME280;48695;53.480;-6.300;2023-12-07T02:48:09;99395.59;;;10.84;81.10
61537;BME280;48695;53.480;-6.300;2023-12-07T02:50:35;99381.75;;;10.82;81.16
61537;BME280;48695;53.480;-6.300;2023-12-07T02:53:00;99387.75;;;10.84;81.22
61537;BME280;48695;53.480;-6.300;2023-12-07T02:55:25;99369.44;;;10.85;81.32
61537;BME280;48695;53.480;-6.300;2023-12-07T02:57:50;99355.44;;;10.86;81.28
61537;BME280;48695;53.480;-6.300;2023-12-07T03:00:16;99376.25;;;10.88;81.34
61537;BME280;48695;53.480;-6.300;2023-12-07T03:02:41;99385.78;;;10.89;80.97
61537;BME280;48695;53.480;-6.300;2023-12-07T03:05:07;99369.22;;;10.90;81.25
61537;BME280;48695;53.480;-6.300;2023-12-07T03:07:33;99352.69;;;10.89;80.96
61537;BME280;48695;53.480;-6.300;2023-12-07T03:09:58;99357.00;;;10.90;81.17
61537;BME280;48695;53.480;-6.300;2023-12-07T03:12:23;99350.88;;;10.91;81.17
61537;BME280;48695;53.480;-6.300;2023-12-07T03:14:49;99349.84;;;10.94;81.03
61537;BME280;48695;53.480;-6.300;2023-12-07T03:17:14;99335.91;;;10.95;81.04
61537;BME280;48695;53.480;-6.300;2023-12-07T03:19:40;99328.91;;;10.96;81.00
61537;BME280;48695;53.480;-6.300;2023-12-07T03:22:05;99318.38;;;10.97;81.36
61537;BME280;48695;53.480;-6.300;2023-12-07T03:24:34;99340.03;;;10.99;81.47
61537;BME280;48695;53.480;-6.300;2023-12-07T03:26:59;99305.13;;;11.02;81.10
61537;BME280;48695;53.480;-6.300;2023-12-07T03:29:24;99290.28;;;11.02;81.45
61537;BME280;48695;53.480;-6.300;2023-12-07T03:31:50;99271.91;;;11.04;81.11
61537;BME280;48695;53.480;-6.300;2023-12-07T03:34:15;99275.31;;;11.06;81.29
61537;BME280;48695;53.480;-6.300;2023-12-07T03:36:42;99278.78;;;11.06;81.40
61537;BME280;48695;53.480;-6.300;2023-12-07T03:39:07;99262.09;;;11.09;81.49
61537;BME280;48695;53.480;-6.300;2023-12-07T03:41:32;99277.72;;;11.10;81.21
61537;BME280;48695;53.480;-6.300;2023-12-07T03:43:57;99275.88;;;11.12;81.31
61537;BME280;48695;53.480;-6.300;2023-12-07T03:46:23;99267.91;;;11.15;81.21
61537;BME280;48695;53.480;-6.300;2023-12-07T03:48:48;99289.56;;;11.17;81.42
61537;BME280;48695;53.480;-6.300;2023-12-07T03:51:13;99272.13;;;11.18;81.38
61537;BME280;48695;53.480;-6.300;2023-12-07T03:53:41;99263.31;;;11.21;81.63
61537;BME280;48695;53.480;-6.300;2023-12-07T03:56:06;99256.22;;;11.23;81.56
61537;BME280;48695;53.480;-6.300;2023-12-07T03:58:32;99231.78;;;11.24;81.52
61537;BME280;48695;53.480;-6.300;2023-12-07T04:00:57;99244.75;;;11.25;81.59
61537;BME280;48695;53.480;-6.300;2023-12-07T04:03:22;99226.41;;;11.27;81.38
61537;BME280;48695;53.480;-6.300;2023-12-07T04:05:47;99248.91;;;11.29;81.50
61537;BME280;48695;53.480;-6.300;2023-12-07T04:08:13;99227.09;;;11.30;81.37
61537;BME280;48695;53.480;-6.300;2023-12-07T04:10:38;99234.88;;;11.32;81.72
61537;BME280;48695;53.480;-6.300;2023-12-07T04:13:03;99251.41;;;11.32;81.65
61537;BME280;48695;53.480;-6.300;2023-12-07T04:15:28;99227.78;;;11.34;81.66
61537;BME280;48695;53.480;-6.300;2023-12-07T04:17:54;99219.03;;;11.35;81.69
61537;BME280;48695;53.480;-6.300;2023-12-07T04:20:19;99238.19;;;11.35;81.61
61537;BME280;48695;53.480;-6.300;2023-12-07T04:22:44;99246.78;;;11.37;81.41
61537;BME280;48695;53.480;-6.300;2023-12-07T04:25:10;99219.63;;;11.40;81.31
61537;BME280;48695;53.480;-6.300;2023-12-07T04:27:35;99234.41;;;11.41;81.79
61537;BME280;48695;53.480;-6.300;2023-12-07T04:30:01;99210.81;;;11.42;81.42
61537;BME280;48695;53.480;-6.300;2023-12-07T04:32:26;99218.56;;;11.44;81.40
61537;BME280;48695;53.480;-6.300;2023-12-07T04:34:51;99207.19;;;11.45;81.76
61537;BME280;48695;53.480;-6.300;2023-12-07T04:37:17;99215.81;;;11.47;81.43
61537;BME280;48695;53.480;-6.300;2023-12-07T04:39:43;99201.81;;;11.48;81.76
61537;BME280;48695;53.480;-6.300;2023-12-07T04:42:08;99198.22;;;11.51;81.38
61537;BME280;48695;53.480;-6.300;2023-12-07T04:44:33;99190.28;;;11.52;81.58
61537;BME280;48695;53.480;-6.300;2023-12-07T04:46:58;99171.91;;;11.54;81.60
61537;BME280;48695;53.480;-6.300;2023-12-07T04:49:24;99192.72;;;11.55;81.57
61537;BME280;48695;53.480;-6.300;2023-12-07T04:51:49;99170.91;;;11.56;81.71
61537;BME280;48695;53.480;-6.300;2023-12-07T04:54:14;99158.59;;;11.58;81.37
61537;BME280;48695;53.480;-6.300;2023-12-07T04:56:42;99165.50;;;11.59;81.35
61537;BME280;48695;53.480;-6.300;2023-12-07T04:59:08;99159.28;;;11.62;81.59
61537;BME280;48695;53.480;-6.300;2023-12-07T05:01:37;99148.84;;;11.62;81.24
61537;BME280;48695;53.480;-6.300;2023-12-07T05:04:03;99153.88;;;11.65;81.60
61537;BME280;48695;53.480;-6.300;2023-12-07T05:06:29;99139.91;;;11.66;81.42
61537;BME280;48695;53.480;-6.300;2023-12-07T05:08:54;99139.91;;;11.66;81.75
61537;BME280;48695;53.480;-6.300;2023-12-07T05:11:19;99131.97;;;11.67;81.62
61537;BME280;48695;53.480;-6.300;2023-12-07T05:13:45;99127.59;;;11.68;81.17
61537;BME280;48695;53.480;-6.300;2023-12-07T05:16:10;99119.91;;;11.65;81.25
61537;BME280;48695;53.480;-6.300;2023-12-07T05:18:35;99133.50;;;11.72;81.69
61537;BME280;48695;53.480;-6.300;2023-12-07T05:21:01;99148.28;;;11.73;81.43
61537;BME280;48695;53.480;-6.300;2023-12-07T05:23:26;99136.88;;;11.74;81.44
61537;BME280;48695;53.480;-6.300;2023-12-07T05:25:51;99131.66;;;11.74;81.24
61537;BME280;48695;53.480;-6.300;2023-12-07T05:28:17;99125.44;;;11.76;81.63
61537;BME280;48695;53.480;-6.300;2023-12-07T05:30:42;99126.28;;;11.77;81.34
61537;BME280;48695;53.480;-6.300;2023-12-07T05:33:07;99126.09;;;11.80;81.35
61537;BME280;48695;53.480;-6.300;2023-12-07T05:35:33;99128.66;;;11.81;81.36
61537;BME280;48695;53.480;-6.300;2023-12-07T05:37:58;99120.75;;;11.83;81.68
61537;BME280;48695;53.480;-6.300;2023-12-07T05:40:24;99110.28;;;11.83;81.49
61537;BME280;48695;53.480;-6.300;2023-12-07T05:42:49;99103.19;;;11.85;81.59
61537;BME280;48695;53.480;-6.300;2023-12-07T05:45:15;99103.97;;;11.87;81.08
61537;BME280;48695;53.480;-6.300;2023-12-07T05:47:41;99109.19;;;11.87;81.52
61537;BME280;48695;53.480;-6.300;2023-12-07T05:50:06;99097.81;;;11.88;81.51
61537;BME280;48695;53.480;-6.300;2023-12-07T05:52:32;99089.78;;;11.91;81.13
61537;BME280;48695;53.480;-6.300;2023-12-07T05:54:57;99090.72;;;11.90;81.36
61537;BME280;48695;53.480;-6.300;2023-12-07T05:57:22;99081.94;;;11.91;81.42
61537;BME280;48695;53.480;-6.300;2023-12-07T05:59:47;99070.56;;;11.92;80.85
61537;BME280;48695;53.480;-6.300;2023-12-07T06:02:13;99075.78;;;11.92;81.24
61537;BME280;48695;53.480;-6.300;2023-12-07T06:04:38;99067.94;;;11.92;81.18
61537;BME280;48695;53.480;-6.300;2023-12-07T06:07:03;99064.41;;;11.93;81.12
61537;BME280;48695;53.480;-6.300;2023-12-07T06:09:28;99054.88;;;11.92;81.21
61537;BME280;48695;53.480;-6.300;2023-12-07T06:11:54;99053.09;;;11.92;81.27
61537;BME280;48695;53.480;-6.300;2023-12-07T06:14:19;99041.78;;;11.92;81.26
61537;BME280;48695;53.480;-6.300;2023-12-07T06:16:44;99038.25;;;11.93;81.06
61537;BME280;48695;53.480;-6.300;2023-12-07T06:19:09;99035.63;;;11.93;80.96
61537;BME280;48695;53.480;-6.300;2023-12-07T06:21:35;99050.38;;;11.94;81.17
61537;BME280;48695;53.480;-6.300;2023-12-07T06:24:00;99037.31;;;11.94;80.98
61537;BME280;48695;53.480;-6.300;2023-12-07T06:26:25;99018.41;;;11.89;81.19
61537;BME280;48695;53.480;-6.300;2023-12-07T06:28:51;99018.84;;;11.97;81.06
61537;BME280;48695;53.480;-6.300;2023-12-07T06:31:16;99021.44;;;11.97;81.07
61537;BME280;48695;53.480;-6.300;2023-12-07T06:33:45;99028.38;;;11.98;80.92
61537;BME280;48695;53.480;-6.300;2023-12-07T06:36:10;99011.72;;;11.99;80.99
61537;BME280;48695;53.480;-6.300;2023-12-07T06:38:35;99020.31;;;12.01;81.43
61537;BME280;48695;53.480;-6.300;2023-12-07T06:41:01;99008.88;;;12.04;81.57
61537;BME280;48695;53.480;-6.300;2023-12-07T06:43:26;99001.75;;;12.06;81.64
61537;BME280;48695;53.480;-6.300;2023-12-07T06:45:51;99000.75;;;12.08;81.32
61537;BME280;48695;53.480;-6.300;2023-12-07T06:48:17;99006.75;;;12.10;81.16
61537;BME280;48695;53.480;-6.300;2023-12-07T06:50:43;99001.34;;;12.13;81.52
61537;BME280;48695;53.480;-6.300;2023-12-07T06:53:08;98999.47;;;12.15;81.25
61537;BME280;48695;53.480;-6.300;2023-12-07T06:55:33;99009.00;;;12.16;81.41
61537;BME280;48695;53.480;-6.300;2023-12-07T06:57:58;98996.69;;;12.18;81.17
61537;BME280;48695;53.480;-6.300;2023-12-07T07:00:24;98986.97;;;12.20;81.57
61537;BME280;48695;53.480;-6.300;2023-12-07T07:02:49;98972.97;;;12.22;81.41
61537;BME280;48695;53.480;-6.300;2023-12-07T07:05:15;98963.34;;;12.22;81.09
61537;BME280;48695;53.480;-6.300;2023-12-07T07:07:40;98961.38;;;12.26;81.09
61537;BME280;48695;53.480;-6.300;2023-12-07T07:10:06;98956.16;;;12.26;81.45
61537;BME280;48695;53.480;-6.300;2023-12-07T07:12:34;98936.94;;;12.27;81.44
61537;BME280;48695;53.480;-6.300;2023-12-07T07:15:00;98941.22;;;12.28;81.19
61537;BME280;48695;53.480;-6.300;2023-12-07T07:17:25;98947.19;;;12.30;81.06
61537;BME280;48695;53.480;-6.300;2023-12-07T07:19:50;98936.72;;;12.30;81.06
61537;BME280;48695;53.480;-6.300;2023-12-07T07:22:15;98921.81;;;12.32;81.02
61537;BME280;48695;53.480;-6.300;2023-12-07T07:24:41;98914.69;;;12.34;81.36
61537;BME280;48695;53.480;-6.300;2023-12-07T07:27:06;98920.66;;;12.36;81.08
61537;BME280;48695;53.480;-6.300;2023-12-07T07:29:31;98921.50;;;12.36;81.60
61537;BME280;48695;53.480;-6.300;2023-12-07T07:31:57;98920.50;;;12.39;81.44
61537;BME280;48695;53.480;-6.300;2023-12-07T07:34:22;98934.31;;;12.41;81.43
61537;BME280;48695;53.480;-6.300;2023-12-07T07:36:48;98927.25;;;12.43;81.60
61537;BME280;48695;53.480;-6.300;2023-12-07T07:39:14;98921.81;;;12.46;81.66
61537;BME280;48695;53.480;-6.300;2023-12-07T07:41:40;98912.19;;;12.46;81.58
61537;BME280;48695;53.480;-6.300;2023-12-07T07:44:05;98911.16;;;12.49;81.17
61537;BME280;48695;53.480;-6.300;2023-12-07T07:46:30;98919.75;;;12.51;81.68
61537;BME280;48695;53.480;-6.300;2023-12-07T07:48:55;98912.69;;;12.53;81.29
61537;BME280;48695;53.480;-6.300;2023-12-07T07:51:21;98923.16;;;12.53;81.66
61537;BME280;48695;53.480;-6.300;2023-12-07T07:53:46;98927.34;;;12.56;81.29
61537;BME280;48695;53.480;-6.300;2023-12-07T07:56:11;98923.78;;;12.57;81.42
61537;BME280;48695;53.480;-6.300;2023-12-07T07:58:37;98931.56;;;12.58;81.56
61537;BME280;48695;53.480;-6.300;2023-12-07T08:01:02;98928.03;;;12.59;81.06
61537;BME280;48695;53.480;-6.300;2023-12-07T08:03:28;98920.16;;;12.59;81.07
61537;BME280;48695;53.480;-6.300;2023-12-07T08:05:53;98914.00;;;12.60;81.44
61537;BME280;48695;53.480;-6.300;2023-12-07T08:08:19;98899.13;;;12.61;81.10
61537;BME280;48695;53.480;-6.300;2023-12-07T08:10:44;98888.63;;;12.61;81.36
61537;BME280;48695;53.480;-6.300;2023-12-07T08:13:09;98890.41;;;12.60;80.83
61537;BME280;48695;53.480;-6.300;2023-12-07T08:15:34;98896.44;;;12.62;81.13
61537;BME280;48695;53.480;-6.300;2023-12-07T08:18:00;98887.69;;;12.62;81.23
61537;BME280;48695;53.480;-6.300;2023-12-07T08:20:25;98885.94;;;12.62;81.26
61537;BME280;48695;53.480;-6.300;2023-12-07T08:22:51;98875.47;;;12.62;81.22
61537;BME280;48695;53.480;-6.300;2023-12-07T08:25:16;98870.13;;;12.64;81.06
61537;BME280;48695;53.480;-6.300;2023-12-07T08:27:42;98877.16;;;12.63;80.91
61537;BME280;48695;53.480;-6.300;2023-12-07T08:30:10;98857.03;;;12.64;81.25
61537;BME280;48695;53.480;-6.300;2023-12-07T08:32:35;98844.78;;;12.64;80.99
61537;BME280;48695;53.480;-6.300;2023-12-07T08:35:01;98859.56;;;12.65;81.27
61537;BME280;48695;53.480;-6.300;2023-12-07T08:37:26;98849.84;;;12.67;81.42
61537;BME280;48695;53.480;-6.300;2023-12-07T08:39:51;98854.16;;;12.68;81.39
61537;BME280;48695;53.480;-6.300;2023-12-07T08:42:16;98853.09;;;12.71;81.50
61537;BME280;48695;53.480;-6.300;2023-12-07T08:44:42;98843.47;;;12.71;81.21
61537;BME280;48695;53.480;-6.300;2023-12-07T08:47:07;98841.63;;;12.73;81.40
61537;BME280;48695;53.480;-6.300;2023-12-07T08:49:33;98842.34;;;12.76;81.51
61537;BME280;48695;53.480;-6.300;2023-12-07T08:51:58;98843.13;;;12.78;81.47
61537;BME280;48695;53.480;-6.300;2023-12-07T08:54:23;98844.78;;;12.79;81.16
61537;BME280;48695;53.480;-6.300;2023-12-07T08:56:48;98856.00;;;12.81;81.42
61537;BME280;48695;53.480;-6.300;2023-12-07T08:59:14;98851.53;;;12.83;81.43
61537;BME280;48695;53.480;-6.300;2023-12-07T09:01:39;98839.28;;;12.83;81.35
61537;BME280;48695;53.480;-6.300;2023-12-07T09:04:04;98843.47;;;12.86;81.27
61537;BME280;48695;53.480;-6.300;2023-12-07T09:06:30;98852.09;;;12.88;81.51
61537;BME280;48695;53.480;-6.300;2023-12-07T09:08:55;98852.81;;;12.90;81.39
61537;BME280;48695;53.480;-6.300;2023-12-07T09:11:21;98862.47;;;12.89;81.14
61537;BME280;48695;53.480;-6.300;2023-12-07T09:13:46;98838.78;;;12.91;81.13
61537;BME280;48695;53.480;-6.300;2023-12-07T09:16:11;98861.41;;;12.92;81.44
61537;BME280;48695;53.480;-6.300;2023-12-07T09:18:36;98857.88;;;12.93;81.12
61537;BME280;48695;53.480;-6.300;2023-12-07T09:21:02;98843.84;;;12.94;81.19
61537;BME280;48695;53.480;-6.300;2023-12-07T09:23:28;98855.28;;;12.93;81.01
61537;BME280;48695;53.480;-6.300;2023-12-07T09:25:53;98857.88;;;12.93;81.14
61537;BME280;48695;53.480;-6.300;2023-12-07T09:28:18;98853.38;;;12.95;81.25
61537;BME280;48695;53.480;-6.300;2023-12-07T09:30:43;98847.19;;;12.96;81.38
61537;BME280;48695;53.480;-6.300;2023-12-07T09:33:09;98836.72;;;12.96;80.99
61537;BME280;48695;53.480;-6.300;2023-12-07T09:35:34;98815.75;;;12.96;81.22
61537;BME280;48695;53.480;-6.300;2023-12-07T09:38:00;98815.75;;;12.96;81.05
61537;BME280;48695;53.480;-6.300;2023-12-07T09:40:25;98800.03;;;12.96;81.05
61537;BME280;48695;53.480;-6.300;2023-12-07T09:42:51;98798.38;;;12.95;81.02
61537;BME280;48695;53.480;-6.300;2023-12-07T09:45:17;98786.22;;;12.94;81.40
61537;BME280;48695;53.480;-6.300;2023-12-07T09:47:46;98782.75;;;12.93;81.05
61537;BME280;48695;53.480;-6.300;2023-12-07T09:50:12;98760.09;;;12.92;81.05
61537;BME280;48695;53.480;-6.300;2023-12-07T09:52:40;98746.16;;;12.92;81.46
61537;BME280;48695;53.480;-6.300;2023-12-07T09:55:05;98749.72;;;12.91;81.38
61537;BME280;48695;53.480;-6.300;2023-12-07T09:57:32;98760.19;;;12.91;81.41
61537;BME280;48695;53.480;-6.300;2023-12-07T09:59:57;98756.63;;;12.92;81.21
61537;BME280;48695;53.480;-6.300;2023-12-07T10:02:23;98746.16;;;12.92;81.65
61537;BME280;48695;53.480;-6.300;2023-12-07T10:05:02;98735.13;;;12.87;81.36
61537;BME280;48695;53.480;-6.300;2023-12-07T10:07:33;98730.44;;;12.92;81.30
61537;BME280;48695;53.480;-6.300;2023-12-07T10:09:59;98705.03;;;12.80;81.48
61537;BME280;48695;53.480;-6.300;2023-12-07T10:12:25;98722.50;;;12.93;81.76
61537;BME280;48695;53.480;-6.300;2023-12-07T10:14:50;98720.72;;;12.94;81.74
61537;BME280;48695;53.480;-6.300;2023-12-07T10:17:15;98713.69;;;12.94;81.58
61537;BME280;48695;53.480;-6.300;2023-12-07T10:19:40;98708.34;;;12.96;81.84
61537;BME280;48695;53.480;-6.300;2023-12-07T10:22:12;98723.97;;;12.97;81.60
61537;BME280;48695;53.480;-6.300;2023-12-07T10:24:38;98693.38;;;12.98;81.55
61537;BME280;48695;53.480;-6.300;2023-12-07T10:27:03;98693.16;;;13.01;82.00
61537;BME280;48695;53.480;-6.300;2023-12-07T10:29:34;98680.84;;;13.03;81.86
61537;BME280;48695;53.480;-6.300;2023-12-07T10:32:01;98679.88;;;13.04;82.00
61537;BME280;48695;53.480;-6.300;2023-12-07T10:34:27;98697.28;;;13.05;81.75
61537;BME280;48695;53.480;-6.300;2023-12-07T10:36:53;98698.00;;;13.07;81.83
61537;BME280;48695;53.480;-6.300;2023-12-07T10:39:20;98713.53;;;13.10;82.10
61537;BME280;48695;53.480;-6.300;2023-12-07T10:41:46;98716.91;;;13.12;81.77
61537;BME280;48695;53.480;-6.300;2023-12-07T10:44:13;98699.31;;;13.14;81.65
61537;BME280;48695;53.480;-6.300;2023-12-07T10:46:39;98701.81;;;13.16;81.96
61537;BME280;48695;53.480;-6.300;2023-12-07T10:49:07;98686.84;;;13.18;82.14
61537;BME280;48695;53.480;-6.300;2023-12-07T10:51:49;98687.59;;;13.20;81.77
61537;BME280;48695;53.480;-6.300;2023-12-07T10:54:16;98679.63;;;13.21;82.21
61537;BME280;48695;53.480;-6.300;2023-12-07T10:56:45;98667.28;;;13.23;81.85
61537;BME280;48695;53.480;-6.300;2023-12-07T10:59:11;98653.25;;;13.24;82.04
61537;BME280;48695;53.480;-6.300;2023-12-07T11:01:39;98655.63;;;13.28;81.74
61537;BME280;48695;53.480;-6.300;2023-12-07T11:04:05;98643.28;;;13.30;81.74
61537;BME280;48695;53.480;-6.300;2023-12-07T11:06:31;98641.41;;;13.32;81.85
61537;BME280;48695;53.480;-6.300;2023-12-07T11:11:55;98633.34;;;13.35;81.61
61537;BME280;48695;53.480;-6.300;2023-12-07T11:14:22;98619.28;;;13.36;82.02
61537;BME280;48695;53.480;-6.300;2023-12-07T11:16:47;98626.19;;;13.37;81.73
61537;BME280;48695;53.480;-6.300;2023-12-07T11:22:09;98608.59;;;13.39;81.55
61537;BME280;48695;53.480;-6.300;2023-12-07T11:24:35;98611.94;;;13.41;81.59
61537;BME280;48695;53.480;-6.300;2023-12-07T11:27:01;98602.28;;;13.41;81.59
61537;BME280;48695;53.480;-6.300;2023-12-07T11:29:30;98589.31;;;13.40;81.89
61537;BME280;48695;53.480;-6.300;2023-12-07T11:31:56;98575.25;;;13.41;81.59
61537;BME280;48695;53.480;-6.300;2023-12-07T11:34:40;98572.72;;;13.39;81.82
61537;BME280;48695;53.480;-6.300;2023-12-07T11:37:06;98561.41;;;13.39;81.72
61537;BME280;48695;53.480;-6.300;2023-12-07T11:39:41;98559.72;;;13.38;81.69
61537;BME280;48695;53.480;-6.300;2023-12-07T11:42:07;98553.63;;;13.37;81.84
61537;BME280;48695;53.480;-6.300;2023-12-07T11:44:33;98556.38;;;13.36;81.70
61537;BME280;48695;53.480;-6.300;2023-12-07T11:47:00;98556.38;;;13.36;81.67
61537;BME280;48695;53.480;-6.300;2023-12-07T11:49:25;98549.44;;;13.35;81.73
61537;BME280;48695;53.480;-6.300;2023-12-07T11:51:51;98553.84;;;13.34;81.88
61537;BME280;48695;53.480;-6.300;2023-12-07T11:54:16;98539.91;;;13.34;81.83
61537;BME280;48695;53.480;-6.300;2023-12-07T11:56:42;98533.91;;;13.32;81.49
61537;BME280;48695;53.480;-6.300;2023-12-07T11:59:08;98511.28;;;13.31;81.50
61537;BME280;48695;53.480;-6.300;2023-12-07T12:01:33;98499.97;;;13.30;81.90
61537;BME280;48695;53.480;-6.300;2023-12-07T12:03:58;98489.47;;;13.30;81.85
61537;BME280;48695;53.480;-6.300;2023-12-07T12:06:24;98499.13;;;13.30;81.55
61537;BME280;48695;53.480;-6.300;2023-12-07T12:08:49;98502.69;;;13.29;81.59
61537;BME280;48695;53.480;-6.300;2023-12-07T12:11:14;98494.84;;;13.29;81.77
61537;BME280;48695;53.480;-6.300;2023-12-07T12:13:40;98502.69;;;13.29;81.93
61537;BME280;48695;53.480;-6.300;2023-12-07T12:16:06;98493.13;;;13.28;81.49
61537;BME280;48695;53.480;-6.300;2023-12-07T12:18:31;98481.81;;;13.27;82.00
61537;BME280;48695;53.480;-6.300;2023-12-07T12:20:57;98492.28;;;13.27;81.76
61537;BME280;48695;53.480;-6.300;2023-12-07T12:23:24;98503.72;;;13.26;81.56
61537;BME280;48695;53.480;-6.300;2023-12-07T12:25:49;98494.91;;;13.27;81.69
61537;BME280;48695;53.480;-6.300;2023-12-07T12:28:15;98476.50;;;13.29;81.91
61537;BME280;48695;53.480;-6.300;2023-12-07T12:30:41;98458.13;;;13.29;81.73
61537;BME280;48695;53.480;-6.300;2023-12-07T12:33:07;98475.53;;;13.30;81.74
61537;BME280;48695;53.480;-6.300;2023-12-07T12:35:32;98465.06;;;13.30;81.88
61537;BME280;48695;53.480;-6.300;2023-12-07T12:37:58;98446.69;;;13.30;81.79
61537;BME280;48695;53.480;-6.300;2023-12-07T12:40:23;98425.72;;;13.30;81.71
61537;BME280;48695;53.480;-6.300;2023-12-07T12:42:50;98416.91;;;13.31;82.17
61537;BME280;48695;53.480;-6.300;2023-12-07T12:45:16;98399.41;;;13.31;82.09
61537;BME280;48695;53.480;-6.300;2023-12-07T12:47:43;98406.44;;;13.31;82.17